Forest Knolls, Pennsylvania
Current Conditions -  °F | °C
As of 9:53 PM on Saturday 24 Jan 2015 (Local Time) from KLNS Reporting Station
Overcast Overcast  
Wind Chill: 24°   Ceiling: 3200
Heat Index: 34°   Visibility: 9mi
Dew Point: 25°   Wind: 16mph
Humidity: 70%   Direction: 290°WNW
Pressure: 29.56"   Gusts: NA
Location:  40.0642°N, 76.4378°W
Report Text: KLNS 250253Z 29014KT 9SM BKN032 OVC065 01/M04 A2956 RMK AO2 SLP014 T00111039 53027
Loading
Personal Weather Stations






























Interactive Weather Map New forecast layout! Learn more

10-Day Weather Forecast

Advertisements
Track Severe Weather on mobile